createdAt,value
2023-01-21T00:01:27.761Z,43.37
2023-01-21T00:03:49.467Z,46.97
2023-01-21T00:06:15.048Z,48.50
2023-01-21T00:08:36.765Z,43.27
2023-01-21T00:11:08.705Z,46.47
2023-01-21T00:13:30.333Z,46.40
2023-01-21T00:15:54.820Z,44.67
2023-01-21T00:18:16.547Z,45.03
2023-01-21T00:20:38.284Z,45.33
2023-01-21T00:22:59.937Z,49.07
2023-01-21T00:25:22.084Z,48.90
2023-01-21T00:27:43.739Z,46.60
2023-01-21T00:30:06.156Z,53.60
2023-01-21T00:32:28.007Z,58.33
2023-01-21T00:34:49.642Z,48.10
2023-01-21T00:37:11.629Z,54.47
2023-01-21T00:39:33.592Z,56.20
2023-01-21T00:41:55.202Z,51.30
2023-01-21T00:44:17.703Z,55.80
2023-01-21T00:46:39.331Z,54.00
2023-01-21T00:49:01.047Z,53.53
2023-01-21T00:51:23.656Z,60.47
2023-01-21T00:53:45.241Z,55.77
2023-01-21T00:56:13.230Z,54.60
2023-01-21T00:58:36.106Z,59.37
2023-01-21T01:01:05.090Z,62.60
2023-01-21T01:03:26.692Z,64.07
2023-01-21T01:05:48.232Z,62.13
2023-01-21T01:08:09.802Z,64.13
2023-01-21T01:10:31.412Z,60.67
2023-01-21T01:12:53.061Z,66.63
2023-01-21T01:15:14.626Z,59.30
2023-01-21T01:17:36.777Z,68.33
2023-01-21T01:19:58.350Z,63.43
2023-01-21T01:22:19.919Z,65.67
2023-01-21T01:24:41.592Z,65.43
2023-01-21T01:27:03.211Z,68.83
2023-01-21T01:29:25.002Z,62.77
2023-01-21T01:31:46.687Z,64.67
2023-01-21T01:34:08.285Z,65.37
2023-01-21T01:36:29.873Z,72.50
2023-01-21T01:38:53.634Z,66.23
2023-01-21T01:41:20.599Z,68.25
2023-01-21T01:44:17.484Z,71.43
2023-01-21T01:46:39.140Z,71.00
2023-01-21T01:49:18.921Z,72.83
2023-01-21T01:51:55.863Z,67.67
2023-01-21T01:54:28.529Z,68.87
2023-01-21T01:56:57.018Z,64.63
2023-01-21T01:59:19.796Z,67.10
2023-01-21T02:01:41.667Z,63.67
2023-01-21T02:04:10.363Z,67.77
2023-01-21T02:06:32.019Z,67.57
2023-01-21T02:08:55.207Z,59.57
2023-01-21T02:11:19.685Z,60.37
2023-01-21T02:13:48.801Z,62.53
2023-01-21T02:16:23.202Z,63.80
2023-01-21T02:19:36.859Z,67.70
2023-01-21T02:22:10.482Z,59.43
2023-01-21T02:25:08.969Z,65.27
2023-01-21T02:27:58.266Z,69.83
2023-01-21T02:30:54.079Z,62.17
2023-01-21T02:33:46.507Z,62.57
2023-01-21T02:36:31.494Z,63.10
2023-01-21T02:39:30.203Z,66.50
2023-01-21T02:42:11.517Z,63.67
2023-01-21T02:44:42.152Z,68.33
2023-01-21T02:47:45.731Z,71.90
2023-01-21T02:50:18.888Z,69.57
2023-01-21T02:52:40.603Z,70.03
2023-01-21T02:55:03.936Z,70.03
2023-01-21T02:57:47.590Z,62.93
2023-01-21T03:00:15.696Z,65.10
2023-01-21T03:02:43.294Z,67.57
2023-01-21T03:05:58.077Z,68.67
2023-01-21T03:08:30.419Z,64.57
2023-01-21T03:11:09.866Z,62.53
2023-01-21T03:14:17.319Z,64.07
2023-01-21T03:16:59.565Z,67.53
2023-01-21T03:19:30.159Z,69.33
2023-01-21T03:21:54.041Z,66.97
2023-01-21T03:24:16.263Z,69.90
2023-01-21T03:26:45.778Z,65.30
2023-01-21T03:29:16.630Z,63.77
2023-01-21T03:31:43.418Z,66.93
2023-01-21T03:34:11.531Z,71.37
2023-01-21T03:36:54.472Z,65.47
2023-01-21T03:39:25.957Z,65.07
2023-01-21T03:41:47.918Z,68.97
2023-01-21T03:44:09.580Z,65.23
2023-01-21T03:47:03.397Z,69.30
2023-01-21T03:49:34.037Z,68.67
2023-01-21T03:52:01.257Z,68.37
2023-01-21T03:54:23.585Z,72.70
2023-01-21T03:56:45.144Z,64.40
2023-01-21T03:59:06.927Z,64.67
2023-01-21T04:01:28.549Z,63.27
2023-01-21T04:03:50.136Z,66.93
2023-01-21T04:06:19.065Z,64.10
2023-01-21T04:08:40.865Z,59.70
2023-01-21T04:11:02.494Z,67.23
2023-01-21T04:13:24.186Z,65.80
2023-01-21T04:15:45.740Z,63.17
2023-01-21T04:18:07.353Z,62.40
2023-01-21T04:20:29.060Z,68.03
2023-01-21T04:22:50.647Z,69.53
2023-01-21T04:25:12.258Z,65.80
2023-01-21T04:27:33.925Z,67.97
2023-01-21T04:29:55.538Z,62.67
2023-01-21T04:32:17.167Z,66.40
2023-01-21T04:34:38.879Z,67.63
2023-01-21T04:37:00.576Z,69.13
2023-01-21T04:39:22.133Z,60.43
2023-01-21T04:41:45.069Z,60.07
2023-01-21T04:44:06.886Z,61.60
2023-01-21T04:46:28.588Z,63.10
2023-01-21T04:48:50.251Z,62.43
2023-01-21T04:51:12.035Z,62.43
2023-01-21T04:53:33.825Z,64.13
2023-01-21T04:55:55.485Z,61.97
2023-01-21T04:58:17.076Z,62.63
2023-01-21T05:00:38.646Z,63.87
2023-01-21T05:03:00.354Z,65.20
2023-01-21T05:05:22.192Z,66.97
2023-01-21T05:07:43.837Z,64.53
2023-01-21T05:10:05.916Z,64.67
2023-01-21T05:12:28.266Z,64.13
2023-01-21T05:14:54.590Z,66.77
2023-01-21T05:17:16.148Z,60.60
2023-01-21T05:19:37.781Z,62.70
2023-01-21T05:21:59.395Z,67.23
2023-01-21T05:24:21.095Z,63.50
2023-01-21T05:26:43.231Z,58.80
2023-01-21T05:29:04.895Z,62.77
2023-01-21T05:31:26.557Z,68.73
2023-01-21T05:33:48.332Z,63.17
2023-01-21T05:36:10.595Z,59.60
2023-01-21T05:38:32.316Z,64.77
2023-01-21T05:41:02.040Z,65.97
2023-01-21T05:43:23.912Z,64.23
2023-01-21T05:45:45.586Z,65.83
2023-01-21T05:48:07.222Z,61.20
2023-01-21T05:50:28.886Z,61.50
2023-01-21T05:52:50.617Z,69.33
2023-01-21T05:55:12.254Z,62.30
2023-01-21T08:20:08.776Z,94.53
2023-01-21T08:22:32.902Z,103.83
2023-01-21T08:24:56.278Z,99.97
2023-01-21T08:27:21.187Z,101.73
2023-01-21T08:30:05.418Z,80.10
2023-01-21T08:32:35.257Z,81.37
2023-01-21T08:35:24.099Z,85.17
2023-01-21T08:37:50.314Z,81.77
2023-01-21T08:40:14.433Z,86.93
2023-01-21T08:42:43.284Z,86.55
2023-01-21T08:45:36.151Z,98.10
2023-01-21T08:47:59.653Z,78.77
2023-01-21T08:50:23.032Z,97.50
2023-01-21T08:55:33.326Z,80.17
2023-01-21T08:57:58.627Z,98.33
2023-01-21T09:00:22.859Z,83.73
2023-01-21T09:02:47.139Z,76.77
2023-01-21T09:05:10.010Z,83.37
2023-01-21T09:07:34.321Z,87.40
2023-01-21T09:12:19.722Z,81.33
2023-01-21T09:14:42.578Z,74.50
2023-01-21T09:17:04.689Z,80.03
2023-01-21T09:19:29.369Z,68.57
2023-01-21T09:21:56.098Z,75.00
2023-01-21T09:24:18.943Z,72.60
2023-01-21T09:26:45.431Z,79.53
2023-01-21T09:29:07.928Z,73.83
2023-01-21T09:31:32.284Z,73.80
2023-01-21T09:34:00.359Z,79.10
2023-01-21T09:36:27.978Z,64.00
2023-01-21T09:38:56.495Z,65.30
2023-01-21T09:41:48.709Z,60.07
2023-01-21T09:44:40.177Z,62.57
2023-01-21T09:47:23.005Z,65.80
2023-01-21T09:49:51.772Z,65.00
2023-01-21T09:52:31.670Z,64.93
2023-01-21T09:54:57.787Z,59.63
2023-01-21T09:57:47.490Z,61.63
2023-01-21T10:01:03.107Z,62.63
2023-01-21T10:03:36.866Z,64.35
2023-01-21T10:06:23.276Z,59.45
2023-01-21T10:08:54.316Z,56.77
2023-01-21T10:11:35.552Z,55.37
2023-01-21T10:14:27.520Z,58.87
2023-01-21T10:17:36.255Z,64.87
2023-01-21T10:20:17.138Z,56.03
2023-01-21T10:22:46.532Z,53.03
2023-01-21T10:25:32.580Z,51.73
2023-01-21T10:27:59.712Z,54.50
2023-01-21T10:30:41.901Z,49.27
2023-01-21T10:33:07.006Z,48.30
2023-01-21T10:35:58.100Z,55.23
2023-01-21T10:38:28.893Z,56.30
2023-01-21T10:41:15.074Z,55.50
2023-01-21T10:43:50.931Z,52.80
2023-01-21T10:46:24.654Z,55.97
2023-01-21T10:49:01.934Z,50.47
2023-01-21T10:51:39.400Z,50.23
2023-01-21T10:54:22.676Z,46.17
2023-01-21T10:57:13.531Z,43.43
2023-01-21T10:59:38.115Z,49.27
2023-01-21T11:02:08.901Z,45.80
2023-01-21T11:04:30.734Z,43.13
2023-01-21T11:07:08.685Z,43.03
2023-01-21T11:09:37.233Z,46.27
2023-01-21T11:12:00.932Z,49.13
2023-01-21T11:14:25.843Z,44.55
2023-01-21T11:16:50.349Z,50.63
2023-01-21T11:19:24.965Z,46.67
2023-01-21T11:22:13.878Z,45.67
2023-01-21T11:24:48.649Z,46.97
2023-01-21T11:29:54.460Z,45.00
2023-01-21T11:32:27.770Z,49.57
2023-01-21T11:35:01.451Z,44.97
2023-01-21T11:37:26.871Z,46.57
2023-01-21T11:40:22.561Z,46.70
2023-01-21T11:42:50.979Z,51.27
2023-01-21T11:45:37.958Z,48.83
2023-01-21T11:48:01.307Z,50.87
2023-01-21T11:50:34.635Z,48.23
2023-01-21T11:53:15.095Z,54.73
2023-01-21T11:55:51.590Z,50.17
2023-01-21T11:58:24.909Z,46.00
2023-01-21T12:00:50.865Z,43.10
2023-01-21T12:03:20.275Z,46.43
2023-01-21T12:05:45.641Z,44.87
2023-01-21T12:08:07.945Z,44.07
2023-01-21T12:10:35.614Z,41.80
2023-01-21T12:13:24.739Z,43.33
2023-01-21T12:16:16.247Z,44.80
2023-01-21T12:19:05.074Z,41.83
2023-01-21T12:21:41.503Z,43.63
2023-01-21T12:24:42.999Z,44.63
2023-01-21T12:27:27.096Z,41.23
2023-01-21T12:30:43.869Z,42.13
2023-01-21T12:33:36.942Z,40.47
2023-01-21T12:36:08.934Z,45.80
2023-01-21T12:38:46.857Z,43.10
2023-01-21T12:41:21.014Z,43.47
2023-01-21T12:43:53.654Z,43.92
2023-01-21T12:46:34.981Z,48.17
2023-01-21T12:49:12.275Z,47.73
2023-01-21T12:51:45.913Z,41.57
2023-01-21T12:54:42.251Z,41.73
2023-01-21T12:57:19.354Z,44.13
2023-01-21T12:59:58.408Z,45.97
2023-01-21T13:02:40.791Z,39.43
2023-01-21T13:05:27.289Z,41.00
2023-01-21T13:08:05.874Z,44.27
2023-01-21T13:10:39.034Z,42.70
2023-01-21T13:13:16.341Z,40.33
2023-01-21T13:15:43.405Z,38.27
2023-01-21T13:18:16.720Z,39.67
2023-01-21T13:20:47.616Z,37.77
2023-01-21T13:23:51.427Z,39.10
2023-01-21T13:26:22.268Z,35.47
2023-01-21T13:29:17.018Z,36.60
2023-01-21T13:32:13.921Z,39.00
2023-01-21T13:35:01.393Z,38.63
2023-01-21T13:38:01.839Z,34.30
2023-01-21T13:40:51.744Z,38.77
2023-01-21T13:43:29.292Z,39.33
2023-01-21T13:46:14.372Z,39.97
2023-01-21T13:49:07.581Z,32.10
2023-01-21T13:52:00.267Z,35.13
2023-01-21T13:54:46.239Z,37.80
2023-01-21T13:57:26.481Z,35.87
2023-01-21T14:00:04.728Z,32.03
2023-01-21T14:02:47.888Z,33.90
2023-01-21T14:05:47.744Z,34.20
2023-01-21T14:08:20.883Z,28.77
2023-01-21T14:11:16.370Z,30.60
2023-01-21T14:14:08.082Z,32.90
2023-01-21T14:17:22.541Z,34.77
2023-01-21T14:20:09.341Z,35.23
2023-01-21T14:23:19.597Z,38.53
2023-01-21T14:26:12.650Z,35.27
2023-01-21T14:29:09.584Z,35.27
2023-01-21T14:31:41.348Z,36.97
2023-01-21T14:34:16.513Z,34.70
2023-01-21T14:37:02.943Z,31.53
2023-01-21T14:39:40.965Z,36.43
2023-01-21T14:42:10.666Z,33.67
2023-01-21T14:44:58.659Z,38.23
2023-01-21T14:47:39.885Z,31.70
2023-01-21T14:50:01.692Z,34.83
2023-01-21T14:52:43.235Z,32.50
2023-01-21T14:55:32.719Z,31.37
2023-01-21T14:57:56.917Z,33.40
2023-01-21T15:00:26.696Z,32.78
2023-01-21T15:03:09.003Z,31.53
2023-01-21T15:05:36.974Z,30.17
2023-01-21T15:08:04.502Z,29.70
2023-01-21T15:10:39.143Z,28.93
2023-01-21T15:13:07.457Z,29.48
2023-01-21T15:16:31.167Z,30.00
2023-01-21T15:19:08.355Z,26.40
2023-01-21T15:21:45.098Z,31.27
2023-01-21T15:24:19.048Z,27.90
2023-01-21T15:26:42.319Z,27.90
2023-01-21T15:29:36.636Z,26.03
2023-01-21T15:32:27.226Z,28.30
2023-01-21T15:34:57.523Z,29.80
2023-01-21T15:37:25.640Z,32.33
2023-01-21T15:45:53.610Z,39.40
2023-01-21T15:54:12.604Z,47.03
2023-01-21T16:21:07.977Z,42.17
2023-01-21T16:24:05.376Z,37.40
2023-01-21T16:26:35.699Z,42.17
2023-01-21T16:33:29.799Z,41.87
2023-01-21T16:58:56.092Z,40.70
2023-01-21T17:01:19.927Z,47.03
2023-01-21T17:03:43.138Z,40.35
2023-01-21T17:06:21.332Z,39.13
2023-01-21T17:08:53.399Z,50.33
2023-01-21T17:11:15.116Z,47.27
2023-01-21T17:13:43.075Z,40.97
2023-01-21T17:16:07.247Z,34.43
2023-01-21T17:18:38.887Z,42.10
2023-01-21T17:21:18.667Z,44.20
2023-01-21T17:23:55.889Z,43.10
2023-01-21T17:26:25.296Z,39.07
2023-01-21T17:28:57.457Z,41.60
2023-01-21T17:31:34.967Z,39.73
2023-01-21T17:34:17.364Z,48.63
2023-01-21T17:36:41.105Z,42.87
2023-01-21T17:39:06.113Z,41.20
2023-01-21T17:41:34.441Z,41.20
2023-01-21T17:43:56.784Z,55.73
2023-01-21T17:46:23.115Z,40.27
2023-01-21T17:48:46.374Z,63.80
2023-01-21T17:51:16.454Z,45.30
2023-01-21T17:53:46.270Z,41.30
2023-01-21T17:56:08.963Z,40.90
2023-01-21T17:58:51.453Z,37.07
2023-01-21T18:01:14.608Z,37.93
2023-01-21T18:03:36.259Z,41.87
2023-01-21T18:05:58.335Z,37.47
2023-01-21T18:08:20.168Z,36.83
2023-01-21T18:10:43.518Z,39.93
2023-01-21T18:13:05.382Z,41.53
2023-01-21T18:15:27.131Z,41.10
2023-01-21T18:17:56.124Z,39.10
2023-01-21T18:20:22.416Z,39.50
2023-01-21T18:22:44.421Z,39.37
2023-01-21T18:25:11.179Z,40.23
2023-01-21T18:27:32.918Z,48.10
2023-01-21T18:29:54.698Z,41.57
2023-01-21T18:32:17.815Z,44.40
2023-01-21T18:34:39.819Z,39.83
2023-01-21T18:37:02.449Z,44.70
2023-01-21T18:39:24.603Z,38.10
2023-01-21T18:41:46.641Z,43.93
2023-01-21T18:44:09.689Z,54.83
2023-01-21T18:46:31.566Z,41.47
2023-01-21T18:48:53.225Z,42.30
2023-01-21T18:51:15.066Z,39.20
2023-01-21T18:53:36.715Z,41.17
2023-01-21T18:55:59.121Z,36.10
2023-01-21T18:58:21.075Z,37.23
2023-01-21T19:00:42.836Z,37.73
2023-01-21T19:03:04.589Z,39.73
2023-01-21T19:05:34.071Z,38.03
2023-01-21T19:07:58.804Z,37.80
2023-01-21T19:10:20.847Z,36.77
2023-01-21T19:12:43.914Z,38.73
2023-01-21T19:15:08.616Z,38.70
2023-01-21T19:17:33.181Z,43.40
2023-01-21T19:19:55.941Z,41.43
2023-01-21T19:22:17.776Z,39.23
2023-01-21T19:24:39.718Z,41.97
2023-01-21T19:27:01.538Z,44.07
2023-01-21T19:29:26.748Z,44.80
2023-01-21T19:31:48.442Z,41.10
2023-01-21T19:34:10.472Z,46.37
2023-01-21T19:36:32.304Z,47.47
2023-01-21T19:38:56.905Z,58.30
2023-01-21T19:41:18.720Z,60.20
2023-01-21T19:43:41.231Z,68.37
2023-01-21T19:46:03.130Z,51.97
2023-01-21T19:48:28.216Z,49.03
2023-01-21T19:50:50.185Z,44.43
2023-01-21T19:53:17.718Z,46.00
2023-01-21T19:55:40.318Z,54.80
2023-01-21T19:58:10.985Z,43.57
2023-01-21T20:00:35.298Z,49.40
2023-01-21T20:02:58.898Z,42.90
2023-01-21T20:05:22.153Z,46.08
2023-01-21T20:07:48.885Z,47.70
2023-01-21T20:10:19.925Z,48.20
2023-01-21T20:12:43.949Z,48.20
2023-01-21T20:15:06.745Z,45.80
2023-01-21T20:17:34.655Z,54.43
2023-01-21T20:19:58.964Z,58.70
2023-01-21T20:22:20.605Z,49.47
2023-01-21T20:24:43.521Z,51.87
2023-01-21T20:27:07.778Z,51.97
2023-01-21T20:29:31.443Z,51.10
2023-01-21T20:31:54.342Z,45.50
2023-01-21T20:34:16.231Z,43.97
2023-01-21T20:36:38.773Z,49.33
2023-01-21T20:39:00.567Z,48.20
2023-01-21T20:41:24.250Z,44.10
2023-01-21T20:43:46.237Z,56.30
2023-01-21T20:46:17.708Z,56.67
2023-01-21T20:48:43.669Z,48.60
2023-01-21T20:51:05.992Z,44.43
2023-01-21T20:53:28.092Z,45.43
2023-01-21T20:55:52.217Z,53.03
2023-01-21T20:58:16.427Z,44.80
2023-01-21T21:00:38.657Z,47.90
2023-01-21T21:03:04.591Z,43.90
2023-01-21T21:05:28.500Z,43.40
2023-01-21T21:07:50.547Z,49.35
2023-01-21T21:10:19.363Z,41.70
2023-01-21T21:12:43.317Z,44.77
2023-01-21T21:15:05.552Z,43.15
2023-01-21T21:17:27.229Z,43.33
2023-01-21T21:19:48.899Z,43.50
2023-01-21T21:22:11.259Z,43.73
2023-01-21T21:24:33.128Z,42.73
2023-01-21T21:26:54.877Z,42.30
2023-01-21T21:29:16.768Z,46.40
2023-01-21T21:31:38.522Z,43.77
2023-01-21T21:34:00.482Z,48.60
2023-01-21T21:36:24.586Z,41.40
2023-01-21T21:38:48.949Z,48.20
2023-01-21T21:43:59.423Z,41.53
2023-01-21T21:46:39.584Z,42.90
2023-01-21T21:49:01.308Z,43.27
2023-01-21T21:51:23.392Z,41.77
2023-01-21T21:53:46.546Z,49.43
2023-01-21T21:56:14.588Z,45.90
2023-01-21T21:58:36.584Z,44.53
2023-01-21T22:01:23.411Z,39.87
2023-01-21T22:03:45.647Z,40.63
2023-01-21T22:06:09.330Z,38.60
2023-01-21T22:08:33.368Z,39.38
2023-01-21T22:11:00.915Z,41.95
2023-01-21T22:13:22.696Z,42.97
2023-01-21T22:15:44.686Z,41.90
2023-01-21T22:18:06.415Z,40.70
2023-01-21T22:20:31.691Z,37.37
2023-01-21T22:22:53.395Z,47.20
2023-01-21T22:25:15.114Z,40.10
2023-01-21T22:27:38.905Z,45.87
2023-01-21T22:30:01.578Z,44.60
2023-01-21T22:32:23.402Z,42.77
2023-01-21T22:34:45.179Z,40.37
2023-01-21T22:37:06.837Z,38.33
2023-01-21T22:39:28.583Z,37.53
2023-01-21T22:41:50.421Z,39.30
2023-01-21T22:44:12.070Z,36.47
2023-01-21T22:46:34.168Z,33.50
2023-01-21T22:48:56.262Z,39.23
2023-01-21T22:51:19.591Z,38.90
2023-01-21T22:53:41.638Z,36.65
2023-01-21T22:56:05.345Z,42.43
2023-01-21T22:58:29.499Z,41.13
2023-01-21T23:00:53.827Z,42.17
2023-01-21T23:03:19.052Z,35.60
2023-01-21T23:05:40.714Z,42.73
2023-01-21T23:08:02.523Z,37.07
2023-01-21T23:10:26.706Z,39.60
2023-01-21T23:12:48.471Z,35.00
2023-01-21T23:15:10.299Z,37.23
2023-01-21T23:17:31.989Z,36.03
2023-01-21T23:19:53.622Z,41.73
2023-01-21T23:22:15.317Z,36.43
2023-01-21T23:24:37.075Z,36.37
2023-01-21T23:26:58.753Z,36.70
2023-01-21T23:29:20.517Z,37.57
2023-01-21T23:31:42.284Z,35.80
2023-01-21T23:34:04.005Z,33.40
2023-01-21T23:36:25.683Z,38.23
2023-01-21T23:38:47.647Z,38.80
2023-01-21T23:41:17.148Z,39.13
2023-01-21T23:43:39.397Z,43.20
2023-01-21T23:46:01.024Z,41.90
2023-01-21T23:48:22.871Z,49.43
2023-01-21T23:50:44.616Z,44.13
2023-01-21T23:53:06.290Z,47.93
2023-01-21T23:55:27.994Z,52.17
2023-01-21T23:57:49.872Z,56.23
